sensor_id;sensor_type;location;lat;lon;timestamp;pressure;altitude;pressure_sealevel;temperature
35582;BMP180;21687;48.900;9.188;2024-02-14T00:01:42;98834.00;;;2.70
35582;BMP180;21687;48.900;9.188;2024-02-14T00:04:09;98826.00;;;2.80
35582;BMP180;21687;48.900;9.188;2024-02-14T00:06:36;98822.00;;;2.80
35582;BMP180;21687;48.900;9.188;2024-02-14T00:09:03;98836.00;;;2.80
35582;BMP180;21687;48.900;9.188;2024-02-14T00:11:29;98835.00;;;2.90
35582;BMP180;21687;48.900;9.188;2024-02-14T00:13:55;98830.00;;;3.00
35582;BMP180;21687;48.900;9.188;2024-02-14T00:16:22;98835.00;;;3.00
35582;BMP180;21687;48.900;9.188;2024-02-14T00:18:48;98831.00;;;3.00
35582;BMP180;21687;48.900;9.188;2024-02-14T00:21:15;98840.00;;;2.90
35582;BMP180;21687;48.900;9.188;2024-02-14T00:23:41;98834.00;;;2.90
35582;BMP180;21687;48.900;9.188;2024-02-14T00:26:07;98846.00;;;2.90
35582;BMP180;21687;48.900;9.188;2024-02-14T00:28:33;98833.00;;;2.90
35582;BMP180;21687;48.900;9.188;2024-02-14T00:30:59;98831.00;;;3.00
35582;BMP180;21687;48.900;9.188;2024-02-14T00:33:26;98842.00;;;3.10
35582;BMP180;21687;48.900;9.188;2024-02-14T00:35:52;98835.00;;;3.30
35582;BMP180;21687;48.900;9.188;2024-02-14T00:38:18;98835.00;;;3.40
35582;BMP180;21687;48.900;9.188;2024-02-14T00:40:44;98846.00;;;3.40
35582;BMP180;21687;48.900;9.188;2024-02-14T00:43:10;98840.00;;;3.60
35582;BMP180;21687;48.900;9.188;2024-02-14T00:45:37;98825.00;;;3.80
35582;BMP180;21687;48.900;9.188;2024-02-14T00:48:04;98834.00;;;3.90
35582;BMP180;21687;48.900;9.188;2024-02-14T00:50:30;98823.00;;;3.90
35582;BMP180;21687;48.900;9.188;2024-02-14T00:52:56;98839.00;;;4.00
35582;BMP180;21687;48.900;9.188;2024-02-14T00:55:22;98840.00;;;4.00
35582;BMP180;21687;48.900;9.188;2024-02-14T00:57:49;98835.00;;;4.10
35582;BMP180;21687;48.900;9.188;2024-02-14T01:00:15;98855.00;;;4.10
35582;BMP180;21687;48.900;9.188;2024-02-14T01:02:43;98839.00;;;4.20
35582;BMP180;21687;48.900;9.188;2024-02-14T01:05:09;98835.00;;;4.30
35582;BMP180;21687;48.900;9.188;2024-02-14T01:07:36;98838.00;;;4.30
35582;BMP180;21687;48.900;9.188;2024-02-14T01:10:02;98837.00;;;4.40
35582;BMP180;21687;48.900;9.188;2024-02-14T01:12:29;98845.00;;;4.40
35582;BMP180;21687;48.900;9.188;2024-02-14T01:14:55;98841.00;;;4.50
35582;BMP180;21687;48.900;9.188;2024-02-14T01:17:21;98849.00;;;4.50
35582;BMP180;21687;48.900;9.188;2024-02-14T01:19:48;98847.00;;;4.50
35582;BMP180;21687;48.900;9.188;2024-02-14T01:22:14;98852.00;;;4.50
35582;BMP180;21687;48.900;9.188;2024-02-14T01:24:42;98858.00;;;4.60
35582;BMP180;21687;48.900;9.188;2024-02-14T01:27:09;98852.00;;;4.50
35582;BMP180;21687;48.900;9.188;2024-02-14T01:29:35;98851.00;;;4.50
35582;BMP180;21687;48.900;9.188;2024-02-14T01:32:01;98855.00;;;4.60
35582;BMP180;21687;48.900;9.188;2024-02-14T01:34:28;98848.00;;;4.50
35582;BMP180;21687;48.900;9.188;2024-02-14T01:36:57;98839.00;;;4.50
35582;BMP180;21687;48.900;9.188;2024-02-14T01:39:23;98849.00;;;4.40
35582;BMP180;21687;48.900;9.188;2024-02-14T01:41:49;98836.00;;;4.20
35582;BMP180;21687;48.900;9.188;2024-02-14T01:44:16;98834.00;;;4.10
35582;BMP180;21687;48.900;9.188;2024-02-14T01:46:43;98837.00;;;4.10
35582;BMP180;21687;48.900;9.188;2024-02-14T01:49:10;98838.00;;;4.00
35582;BMP180;21687;48.900;9.188;2024-02-14T01:51:42;98839.00;;;4.10
35582;BMP180;21687;48.900;9.188;2024-02-14T01:54:11;98828.00;;;4.10
35582;BMP180;21687;48.900;9.188;2024-02-14T01:56:38;98831.00;;;4.00
35582;BMP180;21687;48.900;9.188;2024-02-14T01:59:05;98838.00;;;3.90
35582;BMP180;21687;48.900;9.188;2024-02-14T02:01:33;98840.00;;;3.90
35582;BMP180;21687;48.900;9.188;2024-02-14T02:03:59;98837.00;;;3.90
35582;BMP180;21687;48.900;9.188;2024-02-14T02:06:26;98840.00;;;4.00
35582;BMP180;21687;48.900;9.188;2024-02-14T02:08:53;98837.00;;;4.00
35582;BMP180;21687;48.900;9.188;2024-02-14T02:11:19;98829.00;;;4.00
35582;BMP180;21687;48.900;9.188;2024-02-14T02:13:46;98826.00;;;4.10
35582;BMP180;21687;48.900;9.188;2024-02-14T02:16:12;98819.00;;;4.10
35582;BMP180;21687;48.900;9.188;2024-02-14T02:18:38;98819.00;;;4.00
35582;BMP180;21687;48.900;9.188;2024-02-14T02:21:05;98820.00;;;4.10
35582;BMP180;21687;48.900;9.188;2024-02-14T02:23:35;98810.00;;;4.10
35582;BMP180;21687;48.900;9.188;2024-02-14T02:26:02;98821.00;;;4.10
35582;BMP180;21687;48.900;9.188;2024-02-14T02:28:28;98804.00;;;4.00
35582;BMP180;21687;48.900;9.188;2024-02-14T02:30:54;98802.00;;;4.10
35582;BMP180;21687;48.900;9.188;2024-02-14T02:33:21;98812.00;;;4.10
35582;BMP180;21687;48.900;9.188;2024-02-14T02:35:49;98796.00;;;4.00
35582;BMP180;21687;48.900;9.188;2024-02-14T02:38:16;98804.00;;;4.00
35582;BMP180;21687;48.900;9.188;2024-02-14T02:40:43;98796.00;;;4.10
35582;BMP180;21687;48.900;9.188;2024-02-14T02:43:09;98799.00;;;4.10
35582;BMP180;21687;48.900;9.188;2024-02-14T02:45:36;98800.00;;;4.20
35582;BMP180;21687;48.900;9.188;2024-02-14T02:48:02;98791.00;;;4.30
35582;BMP180;21687;48.900;9.188;2024-02-14T02:50:29;98795.00;;;4.40
35582;BMP180;21687;48.900;9.188;2024-02-14T02:52:56;98785.00;;;4.40
35582;BMP180;21687;48.900;9.188;2024-02-14T02:55:23;98795.00;;;4.70
35582;BMP180;21687;48.900;9.188;2024-02-14T02:57:49;98793.00;;;4.80
35582;BMP180;21687;48.900;9.188;2024-02-14T03:00:15;98785.00;;;4.90
35582;BMP180;21687;48.900;9.188;2024-02-14T03:02:42;98779.00;;;4.90
35582;BMP180;21687;48.900;9.188;2024-02-14T03:05:10;98773.00;;;5.00
35582;BMP180;21687;48.900;9.188;2024-02-14T03:07:44;98772.00;;;5.00
35582;BMP180;21687;48.900;9.188;2024-02-14T03:10:11;98771.00;;;5.10
35582;BMP180;21687;48.900;9.188;2024-02-14T03:12:40;98782.00;;;5.00
35582;BMP180;21687;48.900;9.188;2024-02-14T03:15:06;98776.00;;;4.80
35582;BMP180;21687;48.900;9.188;2024-02-14T03:17:36;98774.00;;;4.80
35582;BMP180;21687;48.900;9.188;2024-02-14T03:20:03;98784.00;;;4.70
35582;BMP180;21687;48.900;9.188;2024-02-14T03:22:33;98779.00;;;4.50
35582;BMP180;21687;48.900;9.188;2024-02-14T03:24:59;98776.00;;;4.40
35582;BMP180;21687;48.900;9.188;2024-02-14T03:27:25;98772.00;;;4.30
35582;BMP180;21687;48.900;9.188;2024-02-14T03:29:52;98778.00;;;4.10
35582;BMP180;21687;48.900;9.188;2024-02-14T03:32:21;98787.00;;;4.10
35582;BMP180;21687;48.900;9.188;2024-02-14T03:34:49;98782.00;;;4.10
35582;BMP180;21687;48.900;9.188;2024-02-14T03:37:15;98793.00;;;4.00
35582;BMP180;21687;48.900;9.188;2024-02-14T03:39:41;98796.00;;;3.90
35582;BMP180;21687;48.900;9.188;2024-02-14T03:42:07;98801.00;;;4.00
35582;BMP180;21687;48.900;9.188;2024-02-14T03:44:34;98805.00;;;4.00
35582;BMP180;21687;48.900;9.188;2024-02-14T03:47:00;98814.00;;;4.10
35582;BMP180;21687;48.900;9.188;2024-02-14T03:49:26;98818.00;;;4.20
35582;BMP180;21687;48.900;9.188;2024-02-14T03:51:53;98821.00;;;4.40
35582;BMP180;21687;48.900;9.188;2024-02-14T03:54:20;98822.00;;;4.60
35582;BMP180;21687;48.900;9.188;2024-02-14T03:56:46;98818.00;;;4.70
35582;BMP180;21687;48.900;9.188;2024-02-14T03:59:13;98821.00;;;4.80
35582;BMP180;21687;48.900;9.188;2024-02-14T04:01:44;98817.00;;;4.90
35582;BMP180;21687;48.900;9.188;2024-02-14T04:04:11;98826.00;;;4.90
35582;BMP180;21687;48.900;9.188;2024-02-14T04:06:37;98820.00;;;5.00
35582;BMP180;21687;48.900;9.188;2024-02-14T04:09:03;98819.00;;;5.00
35582;BMP180;21687;48.900;9.188;2024-02-14T04:11:30;98809.00;;;5.10
35582;BMP180;21687;48.900;9.188;2024-02-14T04:13:56;98807.00;;;5.10
35582;BMP180;21687;48.900;9.188;2024-02-14T04:16:22;98807.00;;;5.20
35582;BMP180;21687;48.900;9.188;2024-02-14T04:18:48;98822.00;;;5.10
35582;BMP180;21687;48.900;9.188;2024-02-14T04:21:15;98817.00;;;5.10
35582;BMP180;21687;48.900;9.188;2024-02-14T04:23:41;98817.00;;;5.10
35582;BMP180;21687;48.900;9.188;2024-02-14T04:26:07;98821.00;;;5.10
35582;BMP180;21687;48.900;9.188;2024-02-14T04:28:34;98824.00;;;5.10
35582;BMP180;21687;48.900;9.188;2024-02-14T04:31:00;98819.00;;;5.10
35582;BMP180;21687;48.900;9.188;2024-02-14T04:33:26;98825.00;;;5.20
35582;BMP180;21687;48.900;9.188;2024-02-14T04:35:52;98821.00;;;5.10
35582;BMP180;21687;48.900;9.188;2024-02-14T04:38:19;98831.00;;;5.20
35582;BMP180;21687;48.900;9.188;2024-02-14T04:40:45;98823.00;;;5.30
35582;BMP180;21687;48.900;9.188;2024-02-14T04:43:11;98809.00;;;5.40
35582;BMP180;21687;48.900;9.188;2024-02-14T04:45:38;98826.00;;;5.50
35582;BMP180;21687;48.900;9.188;2024-02-14T04:48:04;98829.00;;;5.60
35582;BMP180;21687;48.900;9.188;2024-02-14T04:50:30;98823.00;;;5.70
35582;BMP180;21687;48.900;9.188;2024-02-14T04:52:57;98829.00;;;5.80
35582;BMP180;21687;48.900;9.188;2024-02-14T04:55:23;98833.00;;;5.80
35582;BMP180;21687;48.900;9.188;2024-02-14T04:57:49;98831.00;;;5.90
35582;BMP180;21687;48.900;9.188;2024-02-14T05:00:15;98829.00;;;6.00
35582;BMP180;21687;48.900;9.188;2024-02-14T05:02:42;98833.00;;;6.00
35582;BMP180;21687;48.900;9.188;2024-02-14T05:05:08;98834.00;;;6.10
35582;BMP180;21687;48.900;9.188;2024-02-14T05:07:34;98835.00;;;6.20
35582;BMP180;21687;48.900;9.188;2024-02-14T05:10:00;98830.00;;;6.20
35582;BMP180;21687;48.900;9.188;2024-02-14T05:12:27;98830.00;;;6.30
35582;BMP180;21687;48.900;9.188;2024-02-14T05:14:53;98837.00;;;6.30
35582;BMP180;21687;48.900;9.188;2024-02-14T05:17:19;98835.00;;;6.40
35582;BMP180;21687;48.900;9.188;2024-02-14T05:19:45;98821.00;;;6.40
35582;BMP180;21687;48.900;9.188;2024-02-14T05:22:12;98826.00;;;6.50
35582;BMP180;21687;48.900;9.188;2024-02-14T05:24:38;98824.00;;;6.50
35582;BMP180;21687;48.900;9.188;2024-02-14T05:27:05;98827.00;;;6.50
35582;BMP180;21687;48.900;9.188;2024-02-14T05:29:31;98842.00;;;6.60
35582;BMP180;21687;48.900;9.188;2024-02-14T05:31:57;98842.00;;;6.60
35582;BMP180;21687;48.900;9.188;2024-02-14T05:34:23;98840.00;;;6.60
35582;BMP180;21687;48.900;9.188;2024-02-14T05:36:49;98832.00;;;6.70
35582;BMP180;21687;48.900;9.188;2024-02-14T05:39:16;98830.00;;;6.60
35582;BMP180;21687;48.900;9.188;2024-02-14T05:41:43;98835.00;;;6.60
35582;BMP180;21687;48.900;9.188;2024-02-14T05:44:09;98839.00;;;6.60
35582;BMP180;21687;48.900;9.188;2024-02-14T05:46:35;98833.00;;;6.50
35582;BMP180;21687;48.900;9.188;2024-02-14T05:49:01;98824.00;;;6.50
35582;BMP180;21687;48.900;9.188;2024-02-14T05:51:28;98824.00;;;6.40
35582;BMP180;21687;48.900;9.188;2024-02-14T05:53:54;98819.00;;;6.30
35582;BMP180;21687;48.900;9.188;2024-02-14T05:56:21;98824.00;;;6.30
35582;BMP180;21687;48.900;9.188;2024-02-14T05:58:47;98825.00;;;6.30
35582;BMP180;21687;48.900;9.188;2024-02-14T06:01:13;98822.00;;;6.30
35582;BMP180;21687;48.900;9.188;2024-02-14T06:03:41;98828.00;;;6.20
35582;BMP180;21687;48.900;9.188;2024-02-14T06:06:09;98820.00;;;6.10
35582;BMP180;21687;48.900;9.188;2024-02-14T06:08:35;98813.00;;;6.00
35582;BMP180;21687;48.900;9.188;2024-02-14T06:11:01;98818.00;;;5.90
35582;BMP180;21687;48.900;9.188;2024-02-14T06:13:27;98824.00;;;5.90
35582;BMP180;21687;48.900;9.188;2024-02-14T06:15:53;98820.00;;;5.90
35582;BMP180;21687;48.900;9.188;2024-02-14T06:18:19;98809.00;;;5.80
35582;BMP180;21687;48.900;9.188;2024-02-14T06:20:45;98818.00;;;5.70
35582;BMP180;21687;48.900;9.188;2024-02-14T06:23:12;98823.00;;;5.50
35582;BMP180;21687;48.900;9.188;2024-02-14T06:25:39;98840.00;;;5.40
35582;BMP180;21687;48.900;9.188;2024-02-14T06:28:05;98833.00;;;5.40
35582;BMP180;21687;48.900;9.188;2024-02-14T06:30:31;98837.00;;;5.30
35582;BMP180;21687;48.900;9.188;2024-02-14T06:32:57;98851.00;;;5.30
35582;BMP180;21687;48.900;9.188;2024-02-14T06:35:26;98853.00;;;5.40
35582;BMP180;21687;48.900;9.188;2024-02-14T06:37:52;98851.00;;;5.50
35582;BMP180;21687;48.900;9.188;2024-02-14T06:40:18;98848.00;;;5.50
35582;BMP180;21687;48.900;9.188;2024-02-14T06:42:45;98860.00;;;5.50
35582;BMP180;21687;48.900;9.188;2024-02-14T06:45:11;98844.00;;;5.60
35582;BMP180;21687;48.900;9.188;2024-02-14T06:47:37;98855.00;;;5.60
35582;BMP180;21687;48.900;9.188;2024-02-14T06:50:03;98846.00;;;5.70
35582;BMP180;21687;48.900;9.188;2024-02-14T06:52:30;98846.00;;;5.70
35582;BMP180;21687;48.900;9.188;2024-02-14T06:54:56;98853.00;;;5.70
35582;BMP180;21687;48.900;9.188;2024-02-14T06:57:22;98845.00;;;5.80
35582;BMP180;21687;48.900;9.188;2024-02-14T06:59:48;98849.00;;;5.80
35582;BMP180;21687;48.900;9.188;2024-02-14T07:02:14;98847.00;;;5.90
35582;BMP180;21687;48.900;9.188;2024-02-14T07:04:40;98849.00;;;5.90
35582;BMP180;21687;48.900;9.188;2024-02-14T07:07:06;98853.00;;;5.90
35582;BMP180;21687;48.900;9.188;2024-02-14T07:09:33;98849.00;;;5.90
35582;BMP180;21687;48.900;9.188;2024-02-14T07:12:01;98859.00;;;5.90
35582;BMP180;21687;48.900;9.188;2024-02-14T07:14:28;98864.00;;;6.00
35582;BMP180;21687;48.900;9.188;2024-02-14T07:16:54;98858.00;;;6.00
35582;BMP180;21687;48.900;9.188;2024-02-14T07:19:20;98864.00;;;6.10
35582;BMP180;21687;48.900;9.188;2024-02-14T07:21:46;98868.00;;;6.20
35582;BMP180;21687;48.900;9.188;2024-02-14T07:24:13;98868.00;;;6.20
35582;BMP180;21687;48.900;9.188;2024-02-14T07:26:39;98869.00;;;6.30
35582;BMP180;21687;48.900;9.188;2024-02-14T07:29:07;98869.00;;;6.40
35582;BMP180;21687;48.900;9.188;2024-02-14T07:31:33;98866.00;;;6.50
35582;BMP180;21687;48.900;9.188;2024-02-14T07:34:00;98867.00;;;6.60
35582;BMP180;21687;48.900;9.188;2024-02-14T07:36:29;98869.00;;;6.70
35582;BMP180;21687;48.900;9.188;2024-02-14T07:38:55;98875.00;;;6.80
35582;BMP180;21687;48.900;9.188;2024-02-14T07:41:22;98878.00;;;7.00
35582;BMP180;21687;48.900;9.188;2024-02-14T07:43:48;98883.00;;;7.20
35582;BMP180;21687;48.900;9.188;2024-02-14T07:46:19;98884.00;;;7.20
35582;BMP180;21687;48.900;9.188;2024-02-14T07:48:46;98897.00;;;7.30
35582;BMP180;21687;48.900;9.188;2024-02-14T07:51:12;98908.00;;;7.60
35582;BMP180;21687;48.900;9.188;2024-02-14T07:53:38;98908.00;;;7.70
35582;BMP180;21687;48.900;9.188;2024-02-14T07:56:05;98903.00;;;7.80
35582;BMP180;21687;48.900;9.188;2024-02-14T07:58:31;98901.00;;;8.00
35582;BMP180;21687;48.900;9.188;2024-02-14T08:00:57;98903.00;;;8.20
35582;BMP180;21687;48.900;9.188;2024-02-14T08:03:23;98909.00;;;8.30
35582;BMP180;21687;48.900;9.188;2024-02-14T08:05:50;98924.00;;;8.40
35582;BMP180;21687;48.900;9.188;2024-02-14T08:08:17;98918.00;;;8.50
35582;BMP180;21687;48.900;9.188;2024-02-14T08:10:43;98925.00;;;8.60
35582;BMP180;21687;48.900;9.188;2024-02-14T08:13:09;98919.00;;;8.70
35582;BMP180;21687;48.900;9.188;2024-02-14T08:15:37;98914.00;;;8.80
35582;BMP180;21687;48.900;9.188;2024-02-14T08:18:03;98912.00;;;9.00
35582;BMP180;21687;48.900;9.188;2024-02-14T08:20:29;98918.00;;;9.10
35582;BMP180;21687;48.900;9.188;2024-02-14T08:22:56;98915.00;;;9.10
35582;BMP180;21687;48.900;9.188;2024-02-14T08:25:22;98913.00;;;9.00
35582;BMP180;21687;48.900;9.188;2024-02-14T08:27:48;98916.00;;;9.00
35582;BMP180;21687;48.900;9.188;2024-02-14T08:30:15;98915.00;;;9.00
35582;BMP180;21687;48.900;9.188;2024-02-14T08:32:41;98914.00;;;9.10
35582;BMP180;21687;48.900;9.188;2024-02-14T08:35:07;98925.00;;;9.20
35582;BMP180;21687;48.900;9.188;2024-02-14T08:37:35;98921.00;;;9.30
35582;BMP180;21687;48.900;9.188;2024-02-14T08:40:07;98923.00;;;9.50
35582;BMP180;21687;48.900;9.188;2024-02-14T08:42:34;98930.00;;;9.50
35582;BMP180;21687;48.900;9.188;2024-02-14T08:45:01;98928.00;;;9.60
35582;BMP180;21687;48.900;9.188;2024-02-14T08:47:27;98934.00;;;9.80
35582;BMP180;21687;48.900;9.188;2024-02-14T08:49:53;98924.00;;;9.80
35582;BMP180;21687;48.900;9.188;2024-02-14T08:52:19;98917.00;;;9.90
35582;BMP180;21687;48.900;9.188;2024-02-14T08:54:47;98922.00;;;10.10
35582;BMP180;21687;48.900;9.188;2024-02-14T08:57:13;98921.00;;;10.20
35582;BMP180;21687;48.900;9.188;2024-02-14T08:59:39;98917.00;;;10.30
35582;BMP180;21687;48.900;9.188;2024-02-14T09:02:09;98920.00;;;10.30
35582;BMP180;21687;48.900;9.188;2024-02-14T09:04:35;98918.00;;;10.30
35582;BMP180;21687;48.900;9.188;2024-02-14T09:07:01;98924.00;;;10.40
35582;BMP180;21687;48.900;9.188;2024-02-14T09:09:27;98924.00;;;10.60
35582;BMP180;21687;48.900;9.188;2024-02-14T09:11:54;98926.00;;;10.70
35582;BMP180;21687;48.900;9.188;2024-02-14T09:14:20;98930.00;;;10.60
35582;BMP180;21687;48.900;9.188;2024-02-14T09:16:47;98928.00;;;10.70
35582;BMP180;21687;48.900;9.188;2024-02-14T09:19:13;98933.00;;;10.80
35582;BMP180;21687;48.900;9.188;2024-02-14T09:21:58;98932.00;;;10.90
35582;BMP180;21687;48.900;9.188;2024-02-14T09:24:45;98937.00;;;11.00
35582;BMP180;21687;48.900;9.188;2024-02-14T09:27:32;98931.00;;;11.00
35582;BMP180;21687;48.900;9.188;2024-02-14T09:30:19;98934.00;;;11.20
35582;BMP180;21687;48.900;9.188;2024-02-14T09:33:05;98933.00;;;11.30
35582;BMP180;21687;48.900;9.188;2024-02-14T09:35:52;98928.00;;;11.50
35582;BMP180;21687;48.900;9.188;2024-02-14T09:38:39;98921.00;;;11.60
35582;BMP180;21687;48.900;9.188;2024-02-14T09:41:40;98911.00;;;11.60
35582;BMP180;21687;48.900;9.188;2024-02-14T09:44:28;98911.00;;;11.60
35582;BMP180;21687;48.900;9.188;2024-02-14T09:47:15;98913.00;;;11.50
35582;BMP180;21687;48.900;9.188;2024-02-14T09:50:02;98923.00;;;11.60
35582;BMP180;21687;48.900;9.188;2024-02-14T09:52:49;98918.00;;;11.60
35582;BMP180;21687;48.900;9.188;2024-02-14T09:55:36;98914.00;;;11.70
35582;BMP180;21687;48.900;9.188;2024-02-14T09:58:25;98921.00;;;11.60
35582;BMP180;21687;48.900;9.188;2024-02-14T10:01:13;98923.00;;;11.70
35582;BMP180;21687;48.900;9.188;2024-02-14T10:03:59;98928.00;;;11.90
35582;BMP180;21687;48.900;9.188;2024-02-14T10:06:46;98919.00;;;12.00
35582;BMP180;21687;48.900;9.188;2024-02-14T10:09:40;98919.00;;;12.30
35582;BMP180;21687;48.900;9.188;2024-02-14T10:12:29;98914.00;;;12.40
35582;BMP180;21687;48.900;9.188;2024-02-14T10:15:16;98910.00;;;12.40
35582;BMP180;21687;48.900;9.188;2024-02-14T10:18:03;98923.00;;;12.60
35582;BMP180;21687;48.900;9.188;2024-02-14T10:20:58;98929.00;;;12.60
35582;BMP180;21687;48.900;9.188;2024-02-14T10:23:45;98920.00;;;12.70
35582;BMP180;21687;48.900;9.188;2024-02-14T10:26:33;98928.00;;;12.60
35582;BMP180;21687;48.900;9.188;2024-02-14T10:29:20;98928.00;;;12.80
35582;BMP180;21687;48.900;9.188;2024-02-14T10:32:07;98922.00;;;12.90
35582;BMP180;21687;48.900;9.188;2024-02-14T10:34:53;98928.00;;;13.10
35582;BMP180;21687;48.900;9.188;2024-02-14T10:37:40;98927.00;;;12.90
35582;BMP180;21687;48.900;9.188;2024-02-14T10:40:28;98922.00;;;12.50
35582;BMP180;21687;48.900;9.188;2024-02-14T10:43:15;98923.00;;;12.50
35582;BMP180;21687;48.900;9.188;2024-02-14T10:46:07;98925.00;;;12.40
35582;BMP180;21687;48.900;9.188;2024-02-14T10:49:00;98917.00;;;12.40
35582;BMP180;21687;48.900;9.188;2024-02-14T10:51:49;98927.00;;;12.30
35582;BMP180;21687;48.900;9.188;2024-02-14T10:54:37;98922.00;;;12.40
35582;BMP180;21687;48.900;9.188;2024-02-14T10:57:28;98921.00;;;12.50
35582;BMP180;21687;48.900;9.188;2024-02-14T11:00:16;98924.00;;;12.80
35582;BMP180;21687;48.900;9.188;2024-02-14T11:03:04;98926.00;;;13.20
35582;BMP180;21687;48.900;9.188;2024-02-14T11:05:54;98936.00;;;13.40
35582;BMP180;21687;48.900;9.188;2024-02-14T11:08:57;98938.00;;;13.60
35582;BMP180;21687;48.900;9.188;2024-02-14T11:11:44;98940.00;;;13.60
35582;BMP180;21687;48.900;9.188;2024-02-14T11:14:34;98932.00;;;13.40
35582;BMP180;21687;48.900;9.188;2024-02-14T11:17:23;98934.00;;;13.30
35582;BMP180;21687;48.900;9.188;2024-02-14T11:20:17;98928.00;;;13.10
35582;BMP180;21687;48.900;9.188;2024-02-14T11:23:05;98935.00;;;13.10
35582;BMP180;21687;48.900;9.188;2024-02-14T11:26:03;98940.00;;;12.90
35582;BMP180;21687;48.900;9.188;2024-02-14T11:29:00;98947.00;;;12.80
35582;BMP180;21687;48.900;9.188;2024-02-14T11:31:48;98953.00;;;12.90
35582;BMP180;21687;48.900;9.188;2024-02-14T11:34:35;98942.00;;;12.90
35582;BMP180;21687;48.900;9.188;2024-02-14T11:37:27;98940.00;;;12.80
35582;BMP180;21687;48.900;9.188;2024-02-14T11:40:14;98946.00;;;12.60
35582;BMP180;21687;48.900;9.188;2024-02-14T11:43:00;98946.00;;;12.70
35582;BMP180;21687;48.900;9.188;2024-02-14T11:45:48;98947.00;;;12.50
35582;BMP180;21687;48.900;9.188;2024-02-14T11:48:38;98942.00;;;12.60
35582;BMP180;21687;48.900;9.188;2024-02-14T11:51:25;98950.00;;;12.70
35582;BMP180;21687;48.900;9.188;2024-02-14T11:54:12;98936.00;;;12.60
35582;BMP180;21687;48.900;9.188;2024-02-14T11:56:59;98946.00;;;12.60
35582;BMP180;21687;48.900;9.188;2024-02-14T11:59:48;98952.00;;;12.50
35582;BMP180;21687;48.900;9.188;2024-02-14T12:02:36;98943.00;;;12.40
35582;BMP180;21687;48.900;9.188;2024-02-14T12:05:22;98944.00;;;12.50
35582;BMP180;21687;48.900;9.188;2024-02-14T12:08:10;98951.00;;;12.80
35582;BMP180;21687;48.900;9.188;2024-02-14T12:10:57;98952.00;;;12.70
35582;BMP180;21687;48.900;9.188;2024-02-14T12:13:43;98957.00;;;12.70
35582;BMP180;21687;48.900;9.188;2024-02-14T12:16:36;98968.00;;;12.60
35582;BMP180;21687;48.900;9.188;2024-02-14T12:19:23;98955.00;;;12.60
35582;BMP180;21687;48.900;9.188;2024-02-14T12:22:10;98952.00;;;12.80
35582;BMP180;21687;48.900;9.188;2024-02-14T12:25:05;98953.00;;;13.00
35582;BMP180;21687;48.900;9.188;2024-02-14T12:27:52;98951.00;;;13.10
35582;BMP180;21687;48.900;9.188;2024-02-14T12:30:51;98948.00;;;13.10
35582;BMP180;21687;48.900;9.188;2024-02-14T12:33:45;98933.00;;;13.30
35582;BMP180;21687;48.900;9.188;2024-02-14T12:36:33;98915.00;;;13.30
35582;BMP180;21687;48.900;9.188;2024-02-14T12:39:19;98918.00;;;13.70
35582;BMP180;21687;48.900;9.188;2024-02-14T12:42:06;98911.00;;;13.80
35582;BMP180;21687;48.900;9.188;2024-02-14T12:44:55;98916.00;;;14.00
35582;BMP180;21687;48.900;9.188;2024-02-14T12:47:42;98911.00;;;14.00
35582;BMP180;21687;48.900;9.188;2024-02-14T12:50:30;98893.00;;;14.20
35582;BMP180;21687;48.900;9.188;2024-02-14T12:53:17;98897.00;;;14.40
35582;BMP180;21687;48.900;9.188;2024-02-14T12:56:03;98895.00;;;14.50
35582;BMP180;21687;48.900;9.188;2024-02-14T12:58:51;98897.00;;;14.80
35582;BMP180;21687;48.900;9.188;2024-02-14T13:01:37;98895.00;;;15.00
35582;BMP180;21687;48.900;9.188;2024-02-14T13:04:05;98894.00;;;15.10
35582;BMP180;21687;48.900;9.188;2024-02-14T13:06:33;98899.00;;;15.20
35582;BMP180;21687;48.900;9.188;2024-02-14T13:09:00;98905.00;;;15.50
35582;BMP180;21687;48.900;9.188;2024-02-14T13:11:26;98907.00;;;15.70
35582;BMP180;21687;48.900;9.188;2024-02-14T13:13:53;98902.00;;;15.60
35582;BMP180;21687;48.900;9.188;2024-02-14T13:16:19;98915.00;;;15.50
35582;BMP180;21687;48.900;9.188;2024-02-14T13:18:45;98899.00;;;15.30
35582;BMP180;21687;48.900;9.188;2024-02-14T13:21:12;98900.00;;;15.20
35582;BMP180;21687;48.900;9.188;2024-02-14T13:23:38;98894.00;;;14.70
35582;BMP180;21687;48.900;9.188;2024-02-14T13:26:06;98884.00;;;14.70
35582;BMP180;21687;48.900;9.188;2024-02-14T13:28:34;98885.00;;;14.70
35582;BMP180;21687;48.900;9.188;2024-02-14T13:31:00;98885.00;;;14.70
35582;BMP180;21687;48.900;9.188;2024-02-14T13:33:26;98885.00;;;14.70
35582;BMP180;21687;48.900;9.188;2024-02-14T13:35:53;98874.00;;;14.80
35582;BMP180;21687;48.900;9.188;2024-02-14T13:38:19;98885.00;;;14.90
35582;BMP180;21687;48.900;9.188;2024-02-14T13:40:45;98887.00;;;15.00
35582;BMP180;21687;48.900;9.188;2024-02-14T13:43:12;98886.00;;;15.00
35582;BMP180;21687;48.900;9.188;2024-02-14T13:45:43;98892.00;;;15.10
35582;BMP180;21687;48.900;9.188;2024-02-14T13:48:10;98889.00;;;15.10
35582;BMP180;21687;48.900;9.188;2024-02-14T13:50:37;98897.00;;;15.20
35582;BMP180;21687;48.900;9.188;2024-02-14T13:53:05;98897.00;;;15.20
35582;BMP180;21687;48.900;9.188;2024-02-14T13:55:32;98898.00;;;15.30
35582;BMP180;21687;48.900;9.188;2024-02-14T13:57:58;98895.00;;;15.30
35582;BMP180;21687;48.900;9.188;2024-02-14T14:00:25;98892.00;;;15.30
35582;BMP180;21687;48.900;9.188;2024-02-14T14:02:51;98891.00;;;15.00
35582;BMP180;21687;48.900;9.188;2024-02-14T14:05:18;98889.00;;;15.00
35582;BMP180;21687;48.900;9.188;2024-02-14T14:07:46;98881.00;;;15.10
35582;BMP180;21687;48.900;9.188;2024-02-14T14:10:13;98889.00;;;15.10
35582;BMP180;21687;48.900;9.188;2024-02-14T14:12:39;98893.00;;;15.10
35582;BMP180;21687;48.900;9.188;2024-02-14T14:15:06;98894.00;;;14.90
35582;BMP180;21687;48.900;9.188;2024-02-14T14:17:33;98899.00;;;14.70
35582;BMP180;21687;48.900;9.188;2024-02-14T14:19:59;98893.00;;;14.60
35582;BMP180;21687;48.900;9.188;2024-02-14T14:22:26;98896.00;;;14.40
35582;BMP180;21687;48.900;9.188;2024-02-14T14:24:55;98895.00;;;14.40
35582;BMP180;21687;48.900;9.188;2024-02-14T14:27:21;98897.00;;;14.50
35582;BMP180;21687;48.900;9.188;2024-02-14T14:29:48;98890.00;;;14.40
35582;BMP180;21687;48.900;9.188;2024-02-14T14:32:14;98890.00;;;14.40
35582;BMP180;21687;48.900;9.188;2024-02-14T14:34:43;98891.00;;;14.40
35582;BMP180;21687;48.900;9.188;2024-02-14T14:37:09;98893.00;;;14.40
35582;BMP180;21687;48.900;9.188;2024-02-14T14:39:36;98901.00;;;14.50
35582;BMP180;21687;48.900;9.188;2024-02-14T14:42:02;98892.00;;;14.40